TRA8V EHAM-LOWI
Flight info
| Callsign | TRA8V |
|---|---|
| Flight time | 1h 7m |
| Altitude | 31000 |
| Route | EDUPO Z739 MISGO DCT ASBON DCT TUSUK DCT ULNOK L607 TEDGO DCT BATUB M738 MADEB MADEB1B |
| Aircraft | B738/M-SDE2E3FGHIRWXY/LB1 |
Departure
| Time | 2026-05-05 10:15 |
|---|---|
| Airport | Amsterdam Airport Schiphol (EHAM) |
Arrival
| Time | 2026-05-05 11:22 |
|---|---|
| Airport | Innsbruck Airport (LOWI) |
| Time | Latitude | Longitude | Altitude | Speed | Heading |
|---|---|---|---|---|---|
| 2026-05-05 09:54 | 52.30467 | 4.76777 | -2 ft | 0 kts | 322° |
| 2026-05-05 10:05 | 52.30466 | 4.76778 | -2 ft | 2 kts | 322° |
| 2026-05-05 10:05 | 52.30446 | 4.76804 | -2 ft | 4 kts | 316° |
| 2026-05-05 10:06 | 52.30430 | 4.76838 | -2 ft | 4 kts | 285° |
| 2026-05-05 10:06 | 52.30429 | 4.76863 | -2 ft | 0 kts | 248° |
| 2026-05-05 10:08 | 52.30429 | 4.76862 | -2 ft | 0 kts | 246° |
| 2026-05-05 10:08 | 52.30409 | 4.76818 | -2 ft | 11 kts | 237° |
| 2026-05-05 10:08 | 52.30366 | 4.76708 | -2 ft | 12 kts | 238° |
| 2026-05-05 10:09 | 52.30310 | 4.76563 | -2 ft | 18 kts | 237° |
| 2026-05-05 10:09 | 52.30245 | 4.76392 | -2 ft | 17 kts | 238° |
| 2026-05-05 10:09 | 52.30182 | 4.76226 | -2 ft | 17 kts | 237° |
| 2026-05-05 10:09 | 52.30118 | 4.76057 | -2 ft | 19 kts | 239° |
| 2026-05-05 10:10 | 52.30047 | 4.75876 | -2 ft | 19 kts | 238° |
| 2026-05-05 10:10 | 52.29979 | 4.75699 | -2 ft | 18 kts | 237° |
| 2026-05-05 10:10 | 52.29914 | 4.75528 | -2 ft | 17 kts | 239° |
| 2026-05-05 10:10 | 52.29851 | 4.75363 | -2 ft | 17 kts | 238° |
| 2026-05-05 10:11 | 52.29849 | 4.75188 | -2 ft | 16 kts | 304° |
| 2026-05-05 10:11 | 52.29921 | 4.75048 | -2 ft | 17 kts | 315° |
| 2026-05-05 10:11 | 52.29996 | 4.74905 | -2 ft | 16 kts | 310° |
| 2026-05-05 10:11 | 52.30070 | 4.74769 | 0 ft | 17 kts | 313° |
| 2026-05-05 10:12 | 52.30162 | 4.74602 | 9 ft | 23 kts | 313° |
| 2026-05-05 10:12 | 52.30272 | 4.74398 | 9 ft | 16 kts | 310° |
| 2026-05-05 10:12 | 52.30329 | 4.74214 | -2 ft | 21 kts | 256° |
| 2026-05-05 10:12 | 52.30321 | 4.74080 | -2 ft | 11 kts | 298° |
| 2026-05-05 10:13 | 52.30306 | 4.74019 | -2 ft | 11 kts | 219° |
| 2026-05-05 10:13 | 52.30243 | 4.73941 | -2 ft | 11 kts | 218° |
| 2026-05-05 10:13 | 52.30190 | 4.73854 | -3 ft | 11 kts | 249° |
| 2026-05-05 10:13 | 52.30215 | 4.73746 | -4 ft | 11 kts | 333° |
| 2026-05-05 10:14 | 52.30239 | 4.73741 | -4 ft | 3 kts | 2° |
| 2026-05-05 10:14 | 52.30490 | 4.73765 | -4 ft | 71 kts | 3° |
| 2026-05-05 10:14 | 52.31204 | 4.73832 | -3 ft | 132 kts | 2° |
| 2026-05-05 10:14 | 52.32238 | 4.73915 | 337 ft | 153 kts | 4° |
| 2026-05-05 10:15 | 52.33293 | 4.74024 | 1193 ft | 151 kts | 8° |
| 2026-05-05 10:15 | 52.34338 | 4.74442 | 1801 ft | 163 kts | 27° |
| 2026-05-05 10:15 | 52.35435 | 4.75299 | 2177 ft | 189 kts | 24° |
| 2026-05-05 10:15 | 52.36734 | 4.76121 | 2408 ft | 211 kts | 24° |
| 2026-05-05 10:16 | 52.38079 | 4.77311 | 2603 ft | 230 kts | 41° |
| 2026-05-05 10:16 | 52.39224 | 4.79269 | 3024 ft | 245 kts | 46° |
| 2026-05-05 10:16 | 52.40427 | 4.81279 | 3761 ft | 250 kts | 43° |
| 2026-05-05 10:16 | 52.41640 | 4.83338 | 4578 ft | 253 kts | 50° |
| 2026-05-05 10:17 | 52.42353 | 4.85994 | 5254 ft | 264 kts | 80° |
| 2026-05-05 10:17 | 52.42415 | 4.89024 | 6004 ft | 269 kts | 89° |
| 2026-05-05 10:17 | 52.42399 | 4.92127 | 6696 ft | 275 kts | 90° |
| 2026-05-05 10:17 | 52.42401 | 4.95286 | 7385 ft | 280 kts | 89° |
| 2026-05-05 10:18 | 52.42081 | 4.98445 | 7986 ft | 287 kts | 116° |
| 2026-05-05 10:18 | 52.40825 | 5.00859 | 8764 ft | 285 kts | 144° |
| 2026-05-05 10:18 | 52.39165 | 5.02747 | 9491 ft | 290 kts | 146° |
| 2026-05-05 10:18 | 52.37512 | 5.04608 | 10131 ft | 295 kts | 145° |
| 2026-05-05 10:19 | 52.35775 | 5.06586 | 10379 ft | 316 kts | 145° |
| 2026-05-05 10:19 | 52.33916 | 5.08718 | 10535 ft | 338 kts | 144° |
| 2026-05-05 10:19 | 52.32100 | 5.11333 | 10699 ft | 358 kts | 133° |
| 2026-05-05 10:19 | 52.30446 | 5.14431 | 11234 ft | 365 kts | 130° |
| 2026-05-05 10:20 | 52.28796 | 5.17628 | 11782 ft | 372 kts | 131° |
| 2026-05-05 10:20 | 52.27086 | 5.20835 | 12438 ft | 375 kts | 132° |
| 2026-05-05 10:20 | 52.25346 | 5.24021 | 13200 ft | 376 kts | 133° |
| 2026-05-05 10:20 | 52.23614 | 5.27250 | 13907 ft | 380 kts | 129° |
| 2026-05-05 10:21 | 52.22013 | 5.30750 | 14647 ft | 381 kts | 125° |
| 2026-05-05 10:21 | 52.20538 | 5.34307 | 15273 ft | 385 kts | 125° |
| 2026-05-05 10:21 | 52.19005 | 5.37970 | 15985 ft | 386 kts | 125° |
| 2026-05-05 10:21 | 52.17478 | 5.41537 | 16600 ft | 392 kts | 127° |
| 2026-05-05 10:22 | 52.15895 | 5.45213 | 17089 ft | 399 kts | 126° |
| 2026-05-05 10:22 | 52.14287 | 5.48915 | 18062 ft | 393 kts | 127° |
| 2026-05-05 10:22 | 52.12722 | 5.52505 | 18641 ft | 397 kts | 126° |
| 2026-05-05 10:22 | 52.11088 | 5.56243 | 19077 ft | 403 kts | 126° |
| 2026-05-05 10:23 | 52.09468 | 5.59998 | 19569 ft | 407 kts | 127° |
| 2026-05-05 10:23 | 52.07836 | 5.63713 | 20088 ft | 411 kts | 126° |
| 2026-05-05 10:23 | 52.06179 | 5.67527 | 20582 ft | 414 kts | 128° |
| 2026-05-05 10:23 | 52.04363 | 5.71172 | 21103 ft | 417 kts | 133° |
| 2026-05-05 10:24 | 52.02427 | 5.74706 | 21595 ft | 420 kts | 134° |
| 2026-05-05 10:24 | 52.00449 | 5.78298 | 22094 ft | 424 kts | 133° |
| 2026-05-05 10:24 | 51.98495 | 5.81910 | 22579 ft | 427 kts | 133° |
| 2026-05-05 10:24 | 51.96563 | 5.85515 | 23040 ft | 431 kts | 133° |
| 2026-05-05 10:25 | 51.94586 | 5.89188 | 23444 ft | 436 kts | 133° |
| 2026-05-05 10:25 | 51.92560 | 5.92973 | 23797 ft | 440 kts | 133° |
| 2026-05-05 10:25 | 51.90538 | 5.96701 | 24210 ft | 442 kts | 133° |
| 2026-05-05 10:25 | 51.88521 | 6.00460 | 24674 ft | 442 kts | 133° |
| 2026-05-05 10:26 | 51.86532 | 6.04152 | 25194 ft | 440 kts | 134° |
| 2026-05-05 10:26 | 51.84488 | 6.07933 | 25561 ft | 444 kts | 134° |
| 2026-05-05 10:26 | 51.82441 | 6.11695 | 25888 ft | 447 kts | 134° |
| 2026-05-05 10:26 | 51.80376 | 6.15470 | 26253 ft | 450 kts | 134° |
| 2026-05-05 10:27 | 51.78294 | 6.19271 | 26631 ft | 452 kts | 134° |
| 2026-05-05 10:27 | 51.76204 | 6.23082 | 26998 ft | 454 kts | 134° |
| 2026-05-05 10:27 | 51.74112 | 6.26899 | 27343 ft | 456 kts | 134° |
| 2026-05-05 10:27 | 51.72004 | 6.30747 | 27665 ft | 458 kts | 135° |
| 2026-05-05 10:28 | 51.69888 | 6.34607 | 28027 ft | 460 kts | 135° |
| 2026-05-05 10:28 | 51.67771 | 6.38465 | 28525 ft | 458 kts | 135° |
| 2026-05-05 10:28 | 51.65668 | 6.42291 | 29063 ft | 456 kts | 135° |
| 2026-05-05 10:28 | 51.63569 | 6.46099 | 29565 ft | 454 kts | 136° |
| 2026-05-05 10:29 | 51.61477 | 6.49889 | 30102 ft | 450 kts | 136° |
| 2026-05-05 10:29 | 51.59413 | 6.53626 | 30669 ft | 444 kts | 136° |
| 2026-05-05 10:29 | 51.57354 | 6.57343 | 30883 ft | 447 kts | 136° |
| 2026-05-05 10:29 | 51.55271 | 6.61094 | 30890 ft | 451 kts | 136° |
| 2026-05-05 10:30 | 51.51102 | 6.68599 | 30888 ft | 447 kts | 136° |
| 2026-05-05 10:30 | 51.46982 | 6.76004 | 30879 ft | 445 kts | 136° |
| 2026-05-05 10:31 | 51.42840 | 6.83416 | 30893 ft | 448 kts | 137° |
| 2026-05-05 10:31 | 51.38278 | 6.90063 | 30883 ft | 440 kts | 152° |
| 2026-05-05 10:32 | 51.33070 | 6.95217 | 30892 ft | 441 kts | 152° |
| 2026-05-05 10:32 | 51.27825 | 7.00379 | 30874 ft | 443 kts | 152° |
| 2026-05-05 10:33 | 51.22615 | 7.05567 | 30889 ft | 442 kts | 152° |
| 2026-05-05 10:33 | 51.17416 | 7.10765 | 30865 ft | 440 kts | 152° |
| 2026-05-05 10:34 | 51.12265 | 7.15904 | 30873 ft | 434 kts | 152° |
| 2026-05-05 10:34 | 51.07156 | 7.20986 | 30877 ft | 433 kts | 152° |
| 2026-05-05 10:35 | 51.02052 | 7.26046 | 30882 ft | 433 kts | 152° |
| 2026-05-05 10:35 | 50.96928 | 7.31113 | 30888 ft | 434 kts | 152° |
| 2026-05-05 10:36 | 50.91818 | 7.36153 | 30886 ft | 436 kts | 152° |
| 2026-05-05 10:36 | 50.86653 | 7.41237 | 30882 ft | 439 kts | 152° |
| 2026-05-05 10:37 | 50.81454 | 7.46340 | 30876 ft | 440 kts | 152° |
| 2026-05-05 10:37 | 50.76248 | 7.51439 | 30844 ft | 441 kts | 153° |
| 2026-05-05 10:38 | 50.71036 | 7.56552 | 30863 ft | 442 kts | 152° |
| 2026-05-05 10:38 | 50.65885 | 7.61866 | 30869 ft | 443 kts | 151° |
| 2026-05-05 10:39 | 50.60758 | 7.67224 | 30857 ft | 442 kts | 151° |
| 2026-05-05 10:39 | 50.55627 | 7.72546 | 30856 ft | 441 kts | 151° |
| 2026-05-05 10:40 | 50.50509 | 7.77818 | 30857 ft | 439 kts | 151° |
| 2026-05-05 10:40 | 50.45404 | 7.83057 | 30852 ft | 438 kts | 152° |
| 2026-05-05 10:41 | 50.40310 | 7.88270 | 30839 ft | 436 kts | 152° |
| 2026-05-05 10:41 | 50.35231 | 7.93456 | 30846 ft | 435 kts | 151° |
| 2026-05-05 10:42 | 50.27628 | 8.01194 | 30859 ft | 435 kts | 151° |
| 2026-05-05 10:43 | 50.22562 | 8.06335 | 30864 ft | 434 kts | 151° |
| 2026-05-05 10:43 | 50.17501 | 8.11459 | 30861 ft | 433 kts | 151° |
| 2026-05-05 10:44 | 50.12448 | 8.16566 | 30862 ft | 432 kts | 151° |
| 2026-05-05 10:44 | 50.08152 | 8.20893 | 30861 ft | 432 kts | 151° |
| 2026-05-05 10:45 | 50.03107 | 8.25957 | 30853 ft | 431 kts | 151° |
| 2026-05-05 10:45 | 49.98071 | 8.31000 | 30870 ft | 431 kts | 151° |
| 2026-05-05 10:46 | 49.93033 | 8.36037 | 30870 ft | 430 kts | 151° |
| 2026-05-05 10:46 | 49.87995 | 8.41067 | 30844 ft | 430 kts | 151° |
| 2026-05-05 10:47 | 49.82964 | 8.46069 | 30843 ft | 430 kts | 151° |
| 2026-05-05 10:47 | 49.77926 | 8.51061 | 30845 ft | 429 kts | 151° |
| 2026-05-05 10:48 | 49.72855 | 8.55905 | 30840 ft | 426 kts | 159° |
| 2026-05-05 10:48 | 49.67269 | 8.58614 | 30852 ft | 420 kts | 168° |
| 2026-05-05 10:49 | 49.61628 | 8.61042 | 30853 ft | 421 kts | 167° |
| 2026-05-05 10:49 | 49.56006 | 8.63579 | 30858 ft | 421 kts | 167° |
| 2026-05-05 10:50 | 49.50384 | 8.66138 | 30857 ft | 422 kts | 167° |
| 2026-05-05 10:50 | 49.44798 | 8.68927 | 30854 ft | 425 kts | 160° |
| 2026-05-05 10:51 | 49.39417 | 8.72726 | 30853 ft | 426 kts | 158° |
| 2026-05-05 10:51 | 49.34056 | 8.76559 | 30852 ft | 425 kts | 159° |
| 2026-05-05 10:52 | 49.28684 | 8.80315 | 30845 ft | 424 kts | 159° |
| 2026-05-05 10:52 | 49.23323 | 8.84030 | 30852 ft | 422 kts | 159° |
| 2026-05-05 10:53 | 49.17975 | 8.87726 | 30831 ft | 421 kts | 159° |
| 2026-05-05 10:53 | 49.12684 | 8.91480 | 30852 ft | 417 kts | 159° |
| 2026-05-05 10:54 | 49.07401 | 8.95059 | 30857 ft | 415 kts | 160° |
| 2026-05-05 10:54 | 49.02106 | 8.98623 | 30848 ft | 417 kts | 160° |
| 2026-05-05 10:55 | 48.96810 | 9.02216 | 30832 ft | 415 kts | 160° |
| 2026-05-05 10:55 | 48.91561 | 9.05776 | 30842 ft | 411 kts | 159° |
| 2026-05-05 10:56 | 48.86350 | 9.09316 | 30850 ft | 409 kts | 159° |
| 2026-05-05 10:56 | 48.81154 | 9.12845 | 30857 ft | 409 kts | 159° |
| 2026-05-05 10:57 | 48.75960 | 9.16360 | 30860 ft | 409 kts | 159° |
| 2026-05-05 10:57 | 48.70754 | 9.19874 | 30847 ft | 410 kts | 159° |
| 2026-05-05 10:58 | 48.65528 | 9.23393 | 30853 ft | 412 kts | 159° |
| 2026-05-05 10:58 | 48.60246 | 9.26781 | 30854 ft | 412 kts | 163° |
| 2026-05-05 10:59 | 48.54812 | 9.29572 | 30860 ft | 413 kts | 164° |
| 2026-05-05 10:59 | 48.49343 | 9.32325 | 30845 ft | 415 kts | 164° |
| 2026-05-05 11:00 | 48.43903 | 9.35088 | 30845 ft | 416 kts | 163° |
| 2026-05-05 11:00 | 48.38382 | 9.37836 | 30843 ft | 416 kts | 162° |
| 2026-05-05 11:01 | 48.32973 | 9.40702 | 30851 ft | 414 kts | 163° |
| 2026-05-05 11:01 | 48.27514 | 9.43465 | 30848 ft | 414 kts | 163° |
| 2026-05-05 11:02 | 48.22062 | 9.46161 | 30832 ft | 412 kts | 164° |
| 2026-05-05 11:02 | 48.16641 | 9.48935 | 30848 ft | 411 kts | 163° |
| 2026-05-05 11:03 | 48.11226 | 9.51700 | 30871 ft | 412 kts | 163° |
| 2026-05-05 11:03 | 48.05789 | 9.54442 | 30852 ft | 413 kts | 163° |
| 2026-05-05 11:04 | 48.00509 | 9.57832 | 30573 ft | 415 kts | 150° |
| 2026-05-05 11:04 | 47.98181 | 9.60292 | 30286 ft | 407 kts | 146° |
| 2026-05-05 11:04 | 47.95929 | 9.62770 | 29863 ft | 402 kts | 146° |
| 2026-05-05 11:04 | 47.93687 | 9.65229 | 29355 ft | 399 kts | 146° |
| 2026-05-05 11:05 | 47.91462 | 9.67656 | 28909 ft | 394 kts | 146° |
| 2026-05-05 11:05 | 47.89262 | 9.70043 | 28458 ft | 389 kts | 147° |
| 2026-05-05 11:05 | 47.87080 | 9.72399 | 28009 ft | 385 kts | 147° |
| 2026-05-05 11:05 | 47.84918 | 9.74729 | 27552 ft | 382 kts | 147° |
| 2026-05-05 11:06 | 47.82770 | 9.77015 | 27097 ft | 378 kts | 147° |
| 2026-05-05 11:06 | 47.80633 | 9.79279 | 26674 ft | 376 kts | 147° |
| 2026-05-05 11:06 | 47.78526 | 9.81546 | 26239 ft | 373 kts | 147° |
| 2026-05-05 11:06 | 47.76436 | 9.83810 | 25812 ft | 370 kts | 147° |
| 2026-05-05 11:07 | 47.74361 | 9.86045 | 25386 ft | 368 kts | 147° |
| 2026-05-05 11:07 | 47.72290 | 9.88265 | 24974 ft | 366 kts | 147° |
| 2026-05-05 11:07 | 47.70229 | 9.90468 | 24554 ft | 364 kts | 147° |
| 2026-05-05 11:07 | 47.68174 | 9.92660 | 24033 ft | 366 kts | 147° |
| 2026-05-05 11:08 | 47.66093 | 9.94876 | 23466 ft | 370 kts | 147° |
| 2026-05-05 11:08 | 47.63995 | 9.97109 | 22779 ft | 373 kts | 146° |
| 2026-05-05 11:08 | 47.61877 | 9.99362 | 22071 ft | 377 kts | 146° |
| 2026-05-05 11:08 | 47.59735 | 10.01637 | 21372 ft | 380 kts | 146° |
| 2026-05-05 11:09 | 47.57588 | 10.03918 | 20684 ft | 378 kts | 146° |
| 2026-05-05 11:09 | 47.55460 | 10.06137 | 20010 ft | 371 kts | 148° |
| 2026-05-05 11:09 | 47.53377 | 10.08334 | 19317 ft | 365 kts | 146° |
| 2026-05-05 11:09 | 47.51342 | 10.10518 | 18687 ft | 359 kts | 144° |
| 2026-05-05 11:10 | 47.49354 | 10.12710 | 18050 ft | 354 kts | 146° |
| 2026-05-05 11:10 | 47.47360 | 10.14803 | 17325 ft | 349 kts | 148° |
| 2026-05-05 11:10 | 47.45365 | 10.16807 | 16617 ft | 345 kts | 147° |
| 2026-05-05 11:10 | 47.43430 | 10.18876 | 15947 ft | 341 kts | 148° |
| 2026-05-05 11:11 | 47.41442 | 10.20738 | 15269 ft | 337 kts | 152° |
| 2026-05-05 11:11 | 47.39446 | 10.22520 | 14592 ft | 333 kts | 152° |
| 2026-05-05 11:11 | 47.37482 | 10.24297 | 13959 ft | 330 kts | 150° |
| 2026-05-05 11:11 | 47.35551 | 10.26095 | 13312 ft | 326 kts | 152° |
| 2026-05-05 11:12 | 47.33683 | 10.27924 | 13044 ft | 333 kts | 141° |
| 2026-05-05 11:12 | 47.32302 | 10.30700 | 12916 ft | 343 kts | 118° |
| 2026-05-05 11:12 | 47.31550 | 10.34122 | 12931 ft | 350 kts | 107° |
| 2026-05-05 11:12 | 47.31077 | 10.37586 | 12868 ft | 347 kts | 103° |
| 2026-05-05 11:13 | 47.30650 | 10.41067 | 12857 ft | 346 kts | 104° |
| 2026-05-05 11:13 | 47.30239 | 10.44541 | 12863 ft | 342 kts | 103° |
| 2026-05-05 11:13 | 47.29817 | 10.47930 | 12844 ft | 330 kts | 104° |
| 2026-05-05 11:13 | 47.29382 | 10.51171 | 12826 ft | 314 kts | 106° |
| 2026-05-05 11:14 | 47.28936 | 10.54250 | 12853 ft | 303 kts | 104° |
| 2026-05-05 11:14 | 47.28581 | 10.57274 | 12833 ft | 298 kts | 96° |
| 2026-05-05 11:14 | 47.28630 | 10.60329 | 12841 ft | 301 kts | 89° |
| 2026-05-05 11:14 | 47.28790 | 10.63413 | 12875 ft | 305 kts | 88° |
| 2026-05-05 11:15 | 47.28990 | 10.66547 | 12857 ft | 309 kts | 88° |
| 2026-05-05 11:15 | 47.29174 | 10.69722 | 12333 ft | 318 kts | 88° |
| 2026-05-05 11:15 | 47.29391 | 10.73003 | 11558 ft | 326 kts | 83° |
| 2026-05-05 11:15 | 47.29685 | 10.76323 | 10834 ft | 327 kts | 89° |
| 2026-05-05 11:16 | 47.29751 | 10.79681 | 10223 ft | 326 kts | 89° |
| 2026-05-05 11:16 | 47.29876 | 10.82991 | 9696 ft | 322 kts | 89° |
| 2026-05-05 11:16 | 47.30032 | 10.86253 | 9155 ft | 316 kts | 88° |
| 2026-05-05 11:16 | 47.30186 | 10.89433 | 8698 ft | 306 kts | 87° |
| 2026-05-05 11:17 | 47.30343 | 10.92535 | 8230 ft | 301 kts | 87° |
| 2026-05-05 11:17 | 47.30484 | 10.95596 | 7746 ft | 297 kts | 86° |
| 2026-05-05 11:17 | 47.30655 | 10.98612 | 7313 ft | 294 kts | 88° |
| 2026-05-05 11:17 | 47.30798 | 11.01611 | 6850 ft | 291 kts | 87° |
| 2026-05-05 11:18 | 47.30936 | 11.04556 | 6429 ft | 286 kts | 87° |
| 2026-05-05 11:18 | 47.30945 | 11.07394 | 5963 ft | 269 kts | 104° |
| 2026-05-05 11:18 | 47.30280 | 11.09842 | 5586 ft | 252 kts | 119° |
| 2026-05-05 11:18 | 47.29509 | 11.12075 | 5251 ft | 237 kts | 117° |
| 2026-05-05 11:19 | 47.28792 | 11.14170 | 5022 ft | 226 kts | 116° |
| 2026-05-05 11:19 | 47.28104 | 11.16213 | 4665 ft | 217 kts | 116° |
| 2026-05-05 11:19 | 47.27463 | 11.18166 | 4325 ft | 207 kts | 116° |
| 2026-05-05 11:19 | 47.26839 | 11.20006 | 4021 ft | 194 kts | 115° |
| 2026-05-05 11:20 | 47.26318 | 11.21742 | 3797 ft | 178 kts | 115° |
| 2026-05-05 11:20 | 47.25777 | 11.23369 | 3548 ft | 172 kts | 118° |
| 2026-05-05 11:20 | 47.25276 | 11.24945 | 3269 ft | 167 kts | 107° |
| 2026-05-05 11:20 | 47.25129 | 11.26634 | 2932 ft | 169 kts | 82° |
| 2026-05-05 11:21 | 47.25390 | 11.28323 | 2735 ft | 170 kts | 81° |
| 2026-05-05 11:21 | 47.25563 | 11.30025 | 2394 ft | 166 kts | 85° |
| 2026-05-05 11:21 | 47.25727 | 11.31636 | 2174 ft | 156 kts | 84° |
| 2026-05-05 11:21 | 47.25894 | 11.33180 | 1943 ft | 149 kts | 81° |
| 2026-05-05 11:22 | 47.26025 | 11.34475 | 1891 ft | 123 kts | 92° |
| 2026-05-05 11:22 | 47.26086 | 11.35012 | 1897 ft | 5 kts | 81° |
| 2026-05-05 11:22 | 47.26095 | 11.35098 | 1903 ft | 10 kts | 81° |
| 2026-05-05 11:22 | 47.26101 | 11.35163 | 1897 ft | 10 kts | 78° |
| 2026-05-05 11:23 | 47.26079 | 11.35253 | 1898 ft | 8 kts | 167° |
| 2026-05-05 11:23 | 47.26034 | 11.35266 | 1899 ft | 7 kts | 167° |
| 2026-05-05 11:23 | 47.25989 | 11.35275 | 1896 ft | 6 kts | 174° |
| 2026-05-05 11:23 | 47.25981 | 11.35277 | 1895 ft | 0 kts | 172° |
| 2026-05-05 11:25 | 47.25971 | 11.35279 | 1891 ft | 5 kts | 172° |
| 2026-05-05 11:25 | 47.25935 | 11.35288 | 1903 ft | 4 kts | 171° |
| 2026-05-05 11:25 | 47.25910 | 11.35270 | 1903 ft | 5 kts | 229° |
| 2026-05-05 11:25 | 47.25896 | 11.35211 | 1903 ft | 7 kts | 258° |
| 2026-05-05 11:26 | 47.25889 | 11.35165 | 1897 ft | 7 kts | 258° |
| 2026-05-05 11:26 | 47.25869 | 11.35108 | 1899 ft | 6 kts | 203° |
| 2026-05-05 11:26 | 47.25853 | 11.35105 | 1901 ft | 1 kts | 177° |
| 2026-05-05 11:26 | 47.25839 | 11.35108 | 1903 ft | 2 kts | 172° |
| 2026-05-05 11:27 | 47.25831 | 11.35110 | 1895 ft | 0 kts | 172° |